createdAt,value
2023-04-25T00:01:50.238Z,100395.03
2023-04-25T00:06:43.520Z,100365.75
2023-04-25T00:11:38.087Z,100356.91
2023-04-25T00:16:34.476Z,100375.94
2023-04-25T00:21:27.796Z,100386.59
2023-04-25T00:26:22.007Z,100384.22
2023-04-25T00:31:16.645Z,100387.00
2023-04-25T00:36:10.739Z,100347.41
2023-04-25T00:41:03.903Z,100355.41
2023-04-25T00:45:58.751Z,100370.59
2023-04-25T00:50:55.253Z,100322.28
2023-04-25T00:55:49.082Z,100358.56
2023-04-25T01:00:43.205Z,100351.53
2023-04-25T01:05:36.411Z,100348.91
2023-04-25T01:10:31.063Z,100295.78
2023-04-25T01:15:24.399Z,100291.66
2023-04-25T01:20:18.128Z,100313.69
2023-04-25T01:25:13.147Z,100296.84
2023-04-25T01:30:07.842Z,100273.94
2023-04-25T01:35:03.328Z,100247.75
2023-04-25T01:39:56.649Z,100270.16
2023-04-25T01:44:51.189Z,100257.47
2023-04-25T01:49:44.328Z,100252.13
2023-04-25T01:54:37.500Z,100227.47
2023-04-25T01:59:31.035Z,100257.78
2023-04-25T02:04:35.415Z,100248.13
2023-04-25T02:09:29.470Z,100246.47
2023-04-25T02:14:23.888Z,100243.97
2023-04-25T02:19:28.304Z,100236.66
2023-04-25T02:24:23.028Z,100215.97
2023-04-25T02:29:16.346Z,100096.47
2023-04-25T02:34:09.621Z,100226.09
2023-04-25T02:39:04.992Z,100189.94
2023-04-25T02:43:59.569Z,100224.38
2023-04-25T02:48:52.797Z,100217.38
2023-04-25T02:53:46.532Z,100217.09
2023-04-25T02:58:39.855Z,100189.66
2023-04-25T03:03:34.514Z,100214.75
2023-04-25T03:08:33.204Z,100211.56
2023-04-25T03:13:28.533Z,100223.75
2023-04-25T03:18:21.868Z,100220.03
2023-04-25T03:23:16.538Z,100207.22
2023-04-25T03:28:09.739Z,100225.72
2023-04-25T03:33:05.872Z,100230.13
2023-04-25T03:37:59.092Z,100160.53
2023-04-25T03:42:58.448Z,100241.44
2023-04-25T03:47:52.014Z,100239.78
2023-04-25T03:52:45.669Z,100226.56
2023-04-25T03:57:38.943Z,100237.72
2023-04-25T04:02:34.371Z,100239.66
2023-04-25T04:07:27.995Z,100237.44
2023-04-25T04:12:25.648Z,100238.84
2023-04-25T04:17:19.126Z,100231.69
2023-04-25T04:22:14.516Z,100180.81
2023-04-25T04:27:08.237Z,100233.75
2023-04-25T04:32:35.710Z,100222.72
2023-04-25T04:37:32.014Z,100229.75
2023-04-25T04:42:26.642Z,100243.41
2023-04-25T04:47:34.137Z,100229.63
2023-04-25T04:52:43.865Z,100243.25
2023-04-25T04:58:09.527Z,100251.25
2023-04-25T05:03:14.882Z,100110.97
2023-04-25T05:08:29.593Z,100192.13
2023-04-25T05:13:38.413Z,100245.72
2023-04-25T05:18:44.794Z,100247.16
2023-04-25T05:24:07.450Z,100155.44
2023-04-25T05:29:39.307Z,100241.63
2023-04-25T05:34:53.249Z,100256.66
2023-04-25T05:39:52.830Z,100205.50
2023-04-25T05:45:18.744Z,100251.69
2023-04-25T05:50:40.955Z,100230.44
2023-04-25T05:55:51.551Z,100241.91
2023-04-25T06:01:02.776Z,100148.56
2023-04-25T06:05:56.201Z,100229.75
2023-04-25T06:10:49.807Z,100222.75
2023-04-25T06:15:44.348Z,100244.50
2023-04-25T06:20:38.701Z,100255.97
2023-04-25T06:25:32.017Z,100227.69
2023-04-25T06:30:26.917Z,100235.13
2023-04-25T06:35:27.159Z,100241.91
2023-04-25T06:40:20.582Z,100228.09
2023-04-25T06:45:13.882Z,100235.00
2023-04-25T06:50:09.080Z,100234.88
2023-04-25T06:55:06.112Z,100213.91
2023-04-25T07:00:26.261Z,100244.25
2023-04-25T07:05:20.358Z,100245.75
2023-04-25T07:10:15.271Z,100248.25
2023-04-25T07:15:11.280Z,100244.63
2023-04-25T07:20:10.122Z,100250.84
2023-04-25T07:25:05.300Z,100256.91
2023-04-25T07:30:00.231Z,100243.94
2023-04-25T07:34:53.422Z,100235.22
2023-04-25T07:39:47.954Z,100211.09
2023-04-25T07:44:41.328Z,100184.78
2023-04-25T07:49:38.844Z,100213.28
2023-04-25T07:54:32.150Z,100211.34
2023-04-25T07:59:31.988Z,100226.19
2023-04-25T08:04:28.027Z,100232.38
2023-04-25T08:09:28.096Z,100235.25
2023-04-25T08:14:22.696Z,100222.75
2023-04-25T08:19:15.978Z,100229.13
2023-04-25T08:24:10.084Z,100228.47
2023-04-25T08:29:07.375Z,100249.03
2023-04-25T08:34:06.079Z,100257.94
2023-04-25T08:39:08.269Z,100229.56
2023-04-25T08:44:13.692Z,100224.09
2023-04-25T08:49:06.847Z,100229.41
2023-04-25T08:54:34.653Z,100252.56
2023-04-25T08:59:26.338Z,100229.38
2023-04-25T09:04:20.361Z,100236.91
2023-04-25T09:09:13.595Z,100239.75
2023-04-25T09:14:18.179Z,100229.44
2023-04-25T09:19:38.942Z,100210.75
2023-04-25T09:24:35.847Z,100190.97
2023-04-25T09:29:33.280Z,100204.66
2023-04-25T09:34:29.723Z,100220.50
2023-04-25T09:39:24.358Z,100222.66
2023-04-25T09:44:26.435Z,100194.25
2023-04-25T09:49:22.792Z,100180.44
2023-04-25T09:54:43.309Z,100182.94
2023-04-25T09:59:54.063Z,100194.81
2023-04-25T10:04:52.792Z,100195.38
2023-04-25T10:09:54.467Z,100186.22
2023-04-25T10:14:49.203Z,100162.53
2023-04-25T10:19:42.540Z,100191.25
2023-04-25T10:24:37.689Z,100177.88
2023-04-25T10:29:32.454Z,100143.56
2023-04-25T10:34:41.123Z,100173.59
2023-04-25T10:39:35.414Z,100156.56
2023-04-25T10:44:30.742Z,100177.66
2023-04-25T10:49:37.512Z,100170.44
2023-04-25T10:54:32.890Z,100171.56
2023-04-25T10:59:27.772Z,100180.31
2023-04-25T11:04:24.975Z,100174.94
2023-04-25T11:09:20.011Z,100132.50
2023-04-25T11:14:13.264Z,100096.63
2023-04-25T11:19:06.507Z,100147.25
2023-04-25T11:23:59.748Z,100140.84
2023-04-25T11:28:59.178Z,100161.22
2023-04-25T11:33:52.949Z,100122.03
2023-04-25T11:38:46.240Z,100147.44
2023-04-25T11:43:40.896Z,100124.84
2023-04-25T11:48:41.081Z,100098.94
2023-04-25T11:53:43.065Z,100121.53
2023-04-25T11:58:56.512Z,100104.06
2023-04-25T12:03:51.253Z,100098.75
2023-04-25T12:09:02.962Z,100109.31
2023-04-25T12:13:56.152Z,100095.00
2023-04-25T12:18:53.966Z,99979.47
2023-04-25T12:23:47.194Z,100115.41
2023-04-25T12:28:40.442Z,100103.56
2023-04-25T12:33:35.414Z,100080.19
2023-04-25T12:38:31.951Z,100074.03
2023-04-25T12:43:25.621Z,100042.72
2023-04-25T12:48:20.919Z,100076.84
2023-04-25T12:53:14.073Z,99945.06
2023-04-25T12:58:09.328Z,100017.25
2023-04-25T13:03:05.416Z,100059.94
2023-04-25T13:07:58.852Z,99979.81
2023-04-25T13:12:56.641Z,100007.66
2023-04-25T13:17:51.519Z,100023.41
2023-04-25T13:22:48.074Z,99925.78
2023-04-25T13:27:47.497Z,100039.50
2023-04-25T13:32:42.220Z,100015.00
2023-04-25T13:37:37.118Z,100030.19
2023-04-25T13:42:33.367Z,99997.22
2023-04-25T13:47:27.789Z,100023.59
2023-04-25T13:52:25.194Z,100063.22
2023-04-25T13:57:20.974Z,100061.22
2023-04-25T14:02:14.653Z,99989.25
2023-04-25T14:07:08.214Z,100055.38
2023-04-25T14:12:01.722Z,100028.44
2023-04-25T14:16:58.151Z,100024.69
2023-04-25T14:21:51.404Z,99956.78
2023-04-25T14:26:45.641Z,100035.44
2023-04-25T14:31:38.862Z,100037.38
2023-04-25T14:36:34.135Z,100025.00
2023-04-25T14:41:28.182Z,99977.59
2023-04-25T14:46:21.901Z,100004.38
2023-04-25T14:51:15.376Z,100061.34
2023-04-25T14:56:10.021Z,100028.13
2023-04-25T15:01:07.872Z,100024.63
2023-04-25T15:06:11.784Z,100091.69
2023-04-25T15:11:05.096Z,100097.47
2023-04-25T15:15:59.894Z,100064.09
2023-04-25T15:20:54.138Z,100073.13
2023-04-25T15:25:49.913Z,100066.22
2023-04-25T15:30:44.432Z,100066.19
2023-04-25T15:35:39.549Z,100097.59
2023-04-25T15:40:32.805Z,100050.03
2023-04-25T15:45:27.076Z,100095.91
2023-04-25T15:50:21.302Z,99993.00
2023-04-25T15:55:19.258Z,100054.69
2023-04-25T16:00:13.765Z,100086.34
2023-04-25T16:05:07.506Z,100008.47
2023-04-25T16:10:00.968Z,100082.91
2023-04-25T16:14:56.014Z,100076.84
2023-04-25T16:19:53.316Z,99997.16
2023-04-25T16:24:49.329Z,100024.56
2023-04-25T16:29:42.866Z,99918.72
2023-04-25T16:34:37.626Z,100009.50
2023-04-25T16:39:30.880Z,100057.03
2023-04-25T16:44:26.911Z,99966.53
2023-04-25T16:49:20.181Z,100055.53
2023-04-25T16:54:16.112Z,100035.50
2023-04-25T17:04:19.216Z,100065.31
2023-04-25T17:09:12.420Z,100064.09
2023-04-25T17:14:07.201Z,100085.88
2023-04-25T17:19:00.280Z,100078.31
2023-04-25T17:23:54.162Z,100057.53
2023-04-25T17:28:49.837Z,100094.56
2023-04-25T17:33:44.578Z,100053.81
2023-04-25T17:38:39.119Z,100103.38
2023-04-25T17:43:33.123Z,100121.16
2023-04-25T17:48:27.704Z,100110.00
2023-04-25T17:53:22.295Z,100132.31
2023-04-25T17:58:15.571Z,100122.22
2023-04-25T18:03:08.784Z,100115.88
2023-04-25T18:08:02.116Z,100106.25
2023-04-25T18:12:57.265Z,100072.59
2023-04-25T18:17:53.048Z,100117.13
2023-04-25T18:22:48.854Z,100091.75
2023-04-25T18:27:42.758Z,100143.44
2023-04-25T18:32:37.650Z,100174.56
2023-04-25T18:37:31.001Z,100160.78
2023-04-25T18:42:24.214Z,100164.09
2023-04-25T18:47:17.996Z,100146.44
2023-04-25T18:52:15.344Z,100148.63
2023-04-25T18:57:09.501Z,100177.84
2023-04-25T19:02:03.234Z,100177.28
2023-04-25T19:06:59.841Z,100191.22
2023-04-25T19:11:54.353Z,100176.03
2023-04-25T19:16:47.661Z,100156.31
2023-04-25T19:21:44.025Z,100131.63
2023-04-25T19:26:39.023Z,100164.75
2023-04-25T19:31:36.342Z,100186.78
2023-04-25T19:36:29.625Z,100094.22
2023-04-25T19:41:22.989Z,100193.47
2023-04-25T19:46:16.622Z,100160.63
2023-04-25T19:51:11.367Z,100181.16
2023-04-25T19:56:05.052Z,100162.41
2023-04-25T20:00:58.402Z,100182.53
2023-04-25T20:05:51.556Z,100161.69
2023-04-25T20:10:46.155Z,100164.06
2023-04-25T20:15:39.542Z,100169.53
2023-04-25T20:20:33.424Z,100149.97
2023-04-25T20:25:26.720Z,100163.19
2023-04-25T20:30:21.583Z,100167.97
2023-04-25T20:35:15.193Z,100156.16
2023-04-25T20:40:09.895Z,100134.38
2023-04-25T20:45:07.540Z,100142.94
2023-04-25T20:50:04.104Z,100151.53
2023-04-25T20:54:59.463Z,100134.19
2023-04-25T20:59:52.827Z,100124.19
2023-04-25T21:04:47.805Z,100142.78
2023-04-25T21:09:45.716Z,100133.41
2023-04-25T21:14:39.145Z,100098.53
2023-04-25T21:19:35.380Z,100137.28
2023-04-25T21:24:28.690Z,100114.44
2023-04-25T21:29:23.424Z,100101.63
2023-04-25T21:34:16.815Z,100125.91
2023-04-25T21:39:10.892Z,100092.94
2023-04-25T21:44:04.283Z,100129.91
2023-04-25T21:48:59.078Z,100125.91
2023-04-25T21:53:52.409Z,100124.38
2023-04-25T21:58:45.686Z,100121.06
2023-04-25T22:03:39.007Z,100077.22
2023-04-25T22:08:33.779Z,100115.16
2023-04-25T22:13:28.595Z,100121.75
2023-04-25T22:18:22.304Z,100124.25
2023-04-25T22:23:15.646Z,100104.28
2023-04-25T22:28:10.836Z,100109.09
2023-04-25T22:33:04.097Z,100128.38
2023-04-25T22:37:57.340Z,100083.59
2023-04-25T22:42:50.477Z,100126.03
2023-04-25T22:47:45.106Z,100129.22
2023-04-25T22:52:38.254Z,100116.97
2023-04-25T22:57:31.494Z,100115.88
2023-04-25T23:02:25.961Z,100108.16
2023-04-25T23:07:20.866Z,100117.13
2023-04-25T23:12:13.974Z,100077.94
2023-04-25T23:17:07.825Z,100115.03
2023-04-25T23:22:01.103Z,100090.78
2023-04-25T23:26:55.878Z,100090.63
2023-04-25T23:31:48.931Z,100096.28
2023-04-25T23:36:42.054Z,100052.59
2023-04-25T23:41:35.549Z,100070.94
2023-04-25T23:46:31.171Z,100097.81
2023-04-25T23:51:25.344Z,100095.91
2023-04-25T23:56:18.454Z,100095.78
